createdAt,value
2022-08-30T00:05:16.911Z,18.70
2022-08-30T00:11:59.470Z,18.70
2022-08-30T00:18:42.763Z,18.70
2022-08-30T00:25:26.428Z,18.60
2022-08-30T00:32:08.833Z,18.60
2022-08-30T00:38:51.170Z,18.50
2022-08-30T00:45:36.664Z,18.40
2022-08-30T00:52:21.382Z,18.60
2022-08-30T00:59:05.360Z,18.60
2022-08-30T01:05:49.651Z,18.60
2022-08-30T01:12:32.896Z,18.60
2022-08-30T01:19:40.874Z,18.30
2022-08-30T01:26:24.043Z,18.10
2022-08-30T01:33:08.224Z,18.20
2022-08-30T01:39:50.664Z,18.20
2022-08-30T01:46:36.951Z,17.90
2022-08-30T01:53:19.291Z,17.90
2022-08-30T02:00:01.744Z,17.80
2022-08-30T02:06:54.202Z,17.70
2022-08-30T02:13:38.474Z,17.70
2022-08-30T02:20:20.868Z,17.70
2022-08-30T02:27:03.623Z,17.60
2022-08-30T02:33:46.205Z,17.60
2022-08-30T02:40:28.787Z,17.70
2022-08-30T02:47:11.711Z,17.70
2022-08-30T02:53:54.100Z,17.60
2022-08-30T03:00:36.894Z,17.60
2022-08-30T03:07:20.984Z,17.40
2022-08-30T03:14:03.570Z,17.20
2022-08-30T03:20:48.317Z,17.10
2022-08-30T03:27:37.150Z,17.30
2022-08-30T03:34:19.507Z,17.20
2022-08-30T03:41:02.015Z,17.10
2022-08-30T03:47:45.384Z,17.00
2022-08-30T03:54:27.721Z,17.00
2022-08-30T04:01:10.304Z,16.70
2022-08-30T04:07:53.397Z,16.80
2022-08-30T04:14:35.762Z,16.90
2022-08-30T04:21:18.840Z,16.80
2022-08-30T04:28:01.987Z,16.70
2022-08-30T04:34:44.392Z,16.60
2022-08-30T04:41:26.950Z,16.80
2022-08-30T04:48:10.287Z,16.90
2022-08-30T04:54:57.033Z,16.80
2022-08-30T05:01:45.535Z,16.80
2022-08-30T05:08:28.365Z,17.10
2022-08-30T05:15:12.457Z,17.40
2022-08-30T05:21:54.791Z,17.60
2022-08-30T05:28:37.719Z,17.70
2022-08-30T05:35:25.438Z,18.10
2022-08-30T05:42:08.432Z,18.50
2022-08-30T05:48:51.443Z,19.10
2022-08-30T05:55:33.803Z,19.30
2022-08-30T06:02:16.477Z,19.90
2022-08-30T06:08:58.999Z,21.90
2022-08-30T06:15:44.958Z,24.30
2022-08-30T06:22:27.376Z,26.40
2022-08-30T06:29:13.069Z,27.20
2022-08-30T06:35:59.120Z,26.50
2022-08-30T06:42:43.983Z,27.70
2022-08-30T06:49:26.389Z,28.50
2022-08-30T06:56:11.360Z,28.90
2022-08-30T07:02:54.026Z,31.00
2022-08-30T07:09:36.416Z,31.40
2022-08-30T07:16:18.776Z,31.50
2022-08-30T07:23:01.474Z,32.60
2022-08-30T07:29:43.858Z,34.80
2022-08-30T07:36:26.255Z,35.50
2022-08-30T07:43:08.606Z,34.60
2022-08-30T07:49:50.993Z,34.90
2022-08-30T07:56:33.319Z,34.40
2022-08-30T08:03:15.711Z,32.80
2022-08-30T08:09:58.363Z,31.20
2022-08-30T08:16:42.311Z,31.80
2022-08-30T08:23:24.842Z,34.90
2022-08-30T08:30:07.812Z,35.40
2022-08-30T08:36:50.814Z,36.30
2022-08-30T08:43:35.716Z,38.30
2022-08-30T08:50:20.541Z,36.20
2022-08-30T08:57:03.047Z,36.50
2022-08-30T09:03:46.698Z,36.40
2022-08-30T09:10:49.247Z,36.40
2022-08-30T09:17:53.579Z,36.30
2022-08-30T09:24:43.366Z,37.50
2022-08-30T09:31:32.921Z,35.70
2022-08-30T09:38:23.258Z,35.60
2022-08-30T09:45:10.501Z,37.40
2022-08-30T09:52:03.026Z,37.20
2022-08-30T09:59:08.614Z,37.30
2022-08-30T10:05:58.415Z,37.00
2022-08-30T10:12:57.275Z,36.70
2022-08-30T10:19:55.367Z,35.80
2022-08-30T10:27:08.112Z,36.80
2022-08-30T10:33:58.529Z,36.30
2022-08-30T10:41:05.954Z,36.10
2022-08-30T10:48:00.148Z,36.50
2022-08-30T10:54:48.441Z,35.00
2022-08-30T11:01:46.626Z,34.20
2022-08-30T11:09:05.441Z,32.60
2022-08-30T11:15:59.553Z,32.10
2022-08-30T11:22:43.284Z,32.50
2022-08-30T11:29:44.910Z,32.20
2022-08-30T11:36:37.491Z,31.60
2022-08-30T11:43:36.746Z,31.70
2022-08-30T11:50:35.191Z,31.50
2022-08-30T11:57:38.730Z,31.30
2022-08-30T12:04:24.609Z,31.10
2022-08-30T12:11:33.381Z,30.80
2022-08-30T12:18:29.629Z,31.60
2022-08-30T12:25:26.624Z,31.80
2022-08-30T12:32:22.228Z,31.80
2022-08-30T12:39:18.608Z,31.80
2022-08-30T12:46:07.535Z,31.50
2022-08-30T12:53:04.447Z,31.70
2022-08-30T12:59:54.068Z,32.30
2022-08-30T13:06:48.565Z,32.50
2022-08-30T13:13:38.884Z,31.90
2022-08-30T13:20:25.713Z,32.00
2022-08-30T13:27:11.719Z,32.10
2022-08-30T13:33:55.216Z,32.30
2022-08-30T13:40:37.782Z,32.40
2022-08-30T13:47:37.077Z,31.50
2022-08-30T13:54:23.878Z,31.40
2022-08-30T14:01:06.837Z,31.00
2022-08-30T14:07:49.235Z,31.70
2022-08-30T14:14:42.501Z,31.80
2022-08-30T14:21:25.466Z,31.50
2022-08-30T14:28:08.083Z,30.70
2022-08-30T14:34:52.400Z,30.40
2022-08-30T14:41:35.115Z,30.00
2022-08-30T14:48:17.471Z,29.80
2022-08-30T14:55:08.425Z,29.90
2022-08-30T15:01:52.053Z,29.80
2022-08-30T15:08:36.169Z,30.20
2022-08-30T15:15:20.918Z,29.80
2022-08-30T15:22:05.555Z,30.00
2022-08-30T15:28:48.431Z,30.00
2022-08-30T15:35:31.299Z,30.40
2022-08-30T15:42:17.668Z,29.70
2022-08-30T15:49:17.262Z,29.40
2022-08-30T15:55:59.836Z,29.50
2022-08-30T16:02:42.336Z,29.30
2022-08-30T16:09:30.029Z,29.20
2022-08-30T16:16:15.461Z,29.00
2022-08-30T16:22:57.854Z,29.10
2022-08-30T16:29:40.202Z,29.10
2022-08-30T16:36:24.130Z,29.20
2022-08-30T16:43:08.183Z,29.10
2022-08-30T16:49:51.049Z,28.90
2022-08-30T16:56:34.986Z,28.50
2022-08-30T17:03:19.451Z,28.50
2022-08-30T17:10:04.369Z,28.30
2022-08-30T17:16:46.746Z,28.20
2022-08-30T17:23:29.744Z,28.10
2022-08-30T17:30:12.358Z,27.80
2022-08-30T17:36:56.428Z,27.90
2022-08-30T17:43:39.339Z,27.70
2022-08-30T17:50:21.754Z,27.60
2022-08-30T17:57:11.314Z,27.40
2022-08-30T18:03:58.635Z,27.20
2022-08-30T18:10:44.488Z,27.00
2022-08-30T18:17:28.355Z,26.80
2022-08-30T18:24:10.933Z,26.50
2022-08-30T18:30:56.839Z,26.30
2022-08-30T18:37:39.617Z,26.20
2022-08-30T18:44:33.482Z,26.00
2022-08-30T18:51:20.710Z,25.80
2022-08-30T18:58:04.781Z,25.50
2022-08-30T19:04:48.987Z,25.40
2022-08-30T19:11:31.333Z,25.10
2022-08-30T19:18:17.490Z,25.00
2022-08-30T19:25:00.172Z,25.10
2022-08-30T19:31:43.624Z,25.00
2022-08-30T19:38:26.781Z,24.90
2022-08-30T19:45:10.859Z,24.90
2022-08-30T19:51:53.225Z,25.00
2022-08-30T19:58:36.236Z,25.10
2022-08-30T20:05:18.910Z,25.00
2022-08-30T20:12:01.379Z,24.90
2022-08-30T20:18:44.883Z,24.70
2022-08-30T20:25:27.306Z,24.80
2022-08-30T20:32:10.603Z,24.70
2022-08-30T20:38:53.386Z,24.70
2022-08-30T20:45:35.773Z,24.50
2022-08-30T20:52:18.237Z,24.40
2022-08-30T20:59:02.608Z,24.20
2022-08-30T21:05:48.747Z,24.00
2022-08-30T21:12:31.874Z,23.90
2022-08-30T21:19:14.235Z,23.80
2022-08-30T21:25:56.567Z,23.80
2022-08-30T21:32:39.010Z,23.70
2022-08-30T21:39:27.104Z,23.30
2022-08-30T21:46:10.273Z,23.10
2022-08-30T21:52:52.749Z,23.10
2022-08-30T21:59:35.132Z,23.20
2022-08-30T22:06:17.963Z,23.20
2022-08-30T22:13:00.658Z,23.10
2022-08-30T22:19:43.075Z,22.80
2022-08-30T22:26:26.110Z,22.60
2022-08-30T22:33:08.455Z,22.60
2022-08-30T22:39:51.683Z,22.80
2022-08-30T22:46:35.873Z,22.60
2022-08-30T22:53:18.499Z,22.60
2022-08-30T23:00:08.719Z,22.80
2022-08-30T23:06:51.378Z,22.80
2022-08-30T23:13:33.743Z,23.00
2022-08-30T23:20:16.252Z,23.00
2022-08-30T23:27:17.135Z,22.60
2022-08-30T23:34:18.567Z,22.60
2022-08-30T23:41:19.998Z,22.30
2022-08-30T23:48:20.862Z,22.30
2022-08-30T23:55:22.773Z,22.20
